createdAt,value
2023-05-07T00:02:15.326Z,101096.28
2023-05-07T00:04:42.011Z,101099.47
2023-05-07T00:07:08.674Z,101108.44
2023-05-07T00:09:35.281Z,101099.63
2023-05-07T00:12:02.483Z,101105.56
2023-05-07T00:14:29.243Z,101101.47
2023-05-07T00:16:56.621Z,101106.72
2023-05-07T00:19:23.337Z,101116.56
2023-05-07T00:21:50.632Z,101098.78
2023-05-07T00:24:17.707Z,101121.44
2023-05-07T00:26:44.253Z,101117.56
2023-05-07T00:31:38.460Z,101111.69
2023-05-07T00:34:05.048Z,101112.56
2023-05-07T00:36:31.867Z,101108.28
2023-05-07T00:39:01.436Z,101101.91
2023-05-07T00:41:28.062Z,101099.47
2023-05-07T00:43:54.677Z,101096.81
2023-05-07T00:46:22.139Z,101104.06
2023-05-07T00:48:50.699Z,101112.47
2023-05-07T00:51:18.400Z,101106.53
2023-05-07T00:53:46.127Z,101110.84
2023-05-07T00:56:13.037Z,101115.75
2023-05-07T00:58:39.877Z,101098.69
2023-05-07T01:01:07.340Z,101101.44
2023-05-07T01:03:34.197Z,101100.81
2023-05-07T01:06:02.719Z,101101.09
2023-05-07T01:08:31.121Z,101097.63
2023-05-07T01:10:58.360Z,101095.91
2023-05-07T01:13:25.959Z,101095.94
2023-05-07T01:15:53.049Z,101103.72
2023-05-07T01:18:20.182Z,101098.06
2023-05-07T01:20:47.152Z,101099.84
2023-05-07T01:23:15.356Z,101108.19
2023-05-07T01:25:42.125Z,101101.88
2023-05-07T01:28:10.196Z,101109.22
2023-05-07T01:30:46.123Z,101111.56
2023-05-07T01:33:17.124Z,101104.03
2023-05-07T01:35:48.479Z,101111.47
2023-05-07T01:38:15.779Z,101103.50
2023-05-07T01:40:42.853Z,101113.50
2023-05-07T01:43:10.592Z,101099.56
2023-05-07T01:45:39.454Z,101099.22
2023-05-07T01:48:08.069Z,101104.41
2023-05-07T01:50:36.106Z,101110.47
2023-05-07T01:53:03.440Z,101102.06
2023-05-07T01:55:30.548Z,101119.03
2023-05-07T01:57:57.160Z,101110.78
2023-05-07T02:00:24.003Z,101122.59
2023-05-07T02:02:50.741Z,101120.75
2023-05-07T02:05:27.088Z,101123.06
2023-05-07T02:08:02.051Z,101121.53
2023-05-07T02:10:30.277Z,101124.38
2023-05-07T02:12:56.849Z,101112.66
2023-05-07T02:15:23.422Z,101117.66
2023-05-07T02:18:19.484Z,101116.09
2023-05-07T02:20:46.645Z,101118.16
2023-05-07T02:23:13.455Z,101116.72
2023-05-07T02:25:40.586Z,101119.00
2023-05-07T02:28:07.206Z,101113.97
2023-05-07T02:30:42.963Z,101105.88
2023-05-07T02:33:09.819Z,101118.22
2023-05-07T02:35:36.641Z,101112.97
2023-05-07T02:38:03.793Z,101107.56
2023-05-07T02:40:31.003Z,101115.66
2023-05-07T02:42:57.560Z,101127.63
2023-05-07T02:45:24.311Z,101114.94
2023-05-07T02:47:53.351Z,101102.47
2023-05-07T02:50:20.336Z,101106.22
2023-05-07T02:52:48.494Z,101111.91
2023-05-07T02:55:15.210Z,101116.00
2023-05-07T02:57:41.796Z,101122.34
2023-05-07T03:00:16.717Z,101115.69
2023-05-07T03:02:51.686Z,101113.38
2023-05-07T03:05:19.294Z,101114.28
2023-05-07T03:07:47.119Z,101104.53
2023-05-07T03:10:14.423Z,101112.25
2023-05-07T03:12:41.315Z,101110.09
2023-05-07T03:15:10.833Z,101101.94
2023-05-07T03:17:37.706Z,101104.03
2023-05-07T03:20:04.696Z,101109.81
2023-05-07T03:22:32.530Z,101109.94
2023-05-07T03:24:59.487Z,101104.84
2023-05-07T03:27:26.074Z,101111.06
2023-05-07T03:29:53.834Z,101110.41
2023-05-07T03:32:21.152Z,101105.72
2023-05-07T03:34:48.531Z,101096.44
2023-05-07T03:37:15.150Z,101108.03
2023-05-07T03:39:42.842Z,101098.97
2023-05-07T03:42:10.283Z,101103.72
2023-05-07T03:44:38.265Z,101109.09
2023-05-07T03:47:05.422Z,101101.44
2023-05-07T03:49:32.739Z,101108.56
2023-05-07T03:51:59.816Z,101102.47
2023-05-07T03:54:26.434Z,101099.69
2023-05-07T03:56:53.350Z,101111.06
2023-05-07T03:59:20.047Z,101119.72
2023-05-07T04:01:48.179Z,101105.13
2023-05-07T04:04:17.712Z,101118.19
2023-05-07T04:06:44.436Z,101129.56
2023-05-07T04:09:11.925Z,101118.66
2023-05-07T04:11:41.016Z,101110.44
2023-05-07T04:14:09.933Z,101135.22
2023-05-07T04:16:37.126Z,101121.25
2023-05-07T04:19:04.471Z,101120.22
2023-05-07T04:21:31.981Z,101124.06
2023-05-07T04:23:59.688Z,101127.09
2023-05-07T04:26:26.362Z,101124.75
2023-05-07T04:28:53.504Z,101119.88
2023-05-07T04:31:20.826Z,101118.16
2023-05-07T04:33:52.752Z,101134.75
2023-05-07T04:36:19.903Z,101136.97
2023-05-07T04:39:00.103Z,101142.94
2023-05-07T04:41:27.907Z,101137.09
2023-05-07T04:43:54.554Z,101139.78
2023-05-07T04:46:24.913Z,101140.97
2023-05-07T04:48:52.375Z,101142.81
2023-05-07T04:51:19.392Z,101157.03
2023-05-07T04:53:46.095Z,101144.84
2023-05-07T04:56:13.862Z,101149.22
2023-05-07T04:58:43.140Z,101159.84
2023-05-07T05:01:10.694Z,101174.00
2023-05-07T05:03:38.799Z,101159.84
2023-05-07T05:06:05.592Z,101166.00
2023-05-07T05:08:34.318Z,101162.19
2023-05-07T05:13:31.725Z,101159.63
2023-05-07T05:15:59.641Z,101154.22
2023-05-07T05:18:28.123Z,101165.53
2023-05-07T05:20:55.909Z,101170.97
2023-05-07T05:23:22.644Z,101164.38
2023-05-07T05:25:49.263Z,101163.03
2023-05-07T05:28:16.257Z,101167.13
2023-05-07T05:30:42.840Z,101168.66
2023-05-07T05:33:09.733Z,101173.84
2023-05-07T05:35:36.601Z,101178.78
2023-05-07T05:38:08.038Z,101172.66
2023-05-07T05:40:34.831Z,101177.22
2023-05-07T05:43:01.699Z,101187.16
2023-05-07T05:45:28.600Z,101182.63
2023-05-07T05:47:57.860Z,101183.94
2023-05-07T05:50:24.751Z,101188.66
2023-05-07T05:52:52.513Z,101186.69
2023-05-07T05:55:20.874Z,101200.94
2023-05-07T05:57:47.530Z,101193.19
2023-05-07T06:00:14.941Z,101197.31
2023-05-07T06:02:48.105Z,101198.97
2023-05-07T06:05:20.898Z,101199.41
2023-05-07T06:07:51.040Z,101191.53
2023-05-07T06:10:18.029Z,101197.88
2023-05-07T06:12:45.453Z,101197.41
2023-05-07T06:15:12.094Z,101183.53
2023-05-07T06:17:39.503Z,101182.78
2023-05-07T06:20:07.934Z,101206.72
2023-05-07T06:22:34.924Z,101189.19
2023-05-07T06:25:01.910Z,101190.19
2023-05-07T06:27:29.118Z,101181.63
2023-05-07T06:29:56.608Z,101192.41
2023-05-07T06:32:23.540Z,101189.09
2023-05-07T06:34:51.676Z,101198.94
2023-05-07T06:37:19.554Z,101196.59
2023-05-07T06:40:00.266Z,101184.25
2023-05-07T06:42:28.279Z,101188.41
2023-05-07T06:44:59.126Z,101213.25
2023-05-07T06:47:26.913Z,101195.09
2023-05-07T06:49:55.761Z,101196.72
2023-05-07T06:52:26.132Z,101197.28
2023-05-07T06:54:53.827Z,101194.22
2023-05-07T06:57:22.975Z,101201.94
2023-05-07T06:59:49.654Z,101202.25
2023-05-07T07:02:18.202Z,101202.56
2023-05-07T07:04:46.325Z,101195.66
2023-05-07T07:07:13.955Z,101198.91
2023-05-07T07:09:42.413Z,101198.28
2023-05-07T07:12:10.311Z,101201.84
2023-05-07T07:14:39.981Z,101195.91
2023-05-07T07:17:06.896Z,101181.81
2023-05-07T07:19:34.881Z,101183.84
2023-05-07T07:22:03.502Z,101203.00
2023-05-07T07:24:31.357Z,101199.78
2023-05-07T07:27:01.869Z,101190.25
2023-05-07T07:29:29.527Z,101196.44
2023-05-07T07:31:57.710Z,101200.38
2023-05-07T07:34:24.629Z,101206.56
2023-05-07T07:36:51.292Z,101202.50
2023-05-07T07:39:19.315Z,101215.84
2023-05-07T07:41:48.362Z,101215.16
2023-05-07T07:44:16.774Z,101208.75
2023-05-07T07:46:47.457Z,101205.72
2023-05-07T07:49:15.498Z,101217.13
2023-05-07T07:51:42.865Z,101235.66
2023-05-07T07:54:11.029Z,101231.25
2023-05-07T07:56:38.161Z,101229.69
2023-05-07T07:59:06.250Z,101225.31
2023-05-07T08:01:34.098Z,101233.03
2023-05-07T08:04:01.352Z,101226.16
2023-05-07T08:06:30.135Z,101223.94
2023-05-07T08:08:57.150Z,101229.78
2023-05-07T08:11:23.755Z,101233.16
2023-05-07T08:13:52.161Z,101227.19
2023-05-07T08:16:19.488Z,101236.34
2023-05-07T08:18:46.341Z,101230.16
2023-05-07T08:21:13.161Z,101241.16
2023-05-07T08:23:39.850Z,101240.06
2023-05-07T08:26:09.272Z,101262.63
2023-05-07T08:28:36.731Z,101237.53
2023-05-07T08:31:03.408Z,101239.38
2023-05-07T08:33:34.703Z,101248.13
2023-05-07T08:36:01.631Z,101245.31
2023-05-07T08:38:28.791Z,101242.38
2023-05-07T08:40:55.622Z,101238.94
2023-05-07T08:43:24.054Z,101245.28
2023-05-07T08:45:55.935Z,101247.19
2023-05-07T08:48:28.176Z,101253.59
2023-05-07T08:51:03.413Z,101254.00
2023-05-07T08:53:30.064Z,101256.53
2023-05-07T08:55:57.623Z,101253.63
2023-05-07T08:58:24.370Z,101262.28
2023-05-07T09:00:53.201Z,101257.25
2023-05-07T09:03:20.862Z,101257.25
2023-05-07T09:05:50.834Z,101261.81
2023-05-07T09:08:19.069Z,101258.84
2023-05-07T09:10:49.249Z,101264.44
2023-05-07T09:13:16.842Z,101258.06
2023-05-07T09:15:43.454Z,101260.41
2023-05-07T09:18:10.627Z,101260.31
2023-05-07T09:20:39.681Z,101263.69
2023-05-07T09:23:08.060Z,101258.50
2023-05-07T09:25:37.244Z,101258.06
2023-05-07T09:28:11.691Z,101277.19
2023-05-07T09:30:38.431Z,101261.56
2023-05-07T09:33:08.332Z,101274.69
2023-05-07T09:35:38.694Z,101277.31
2023-05-07T09:38:09.844Z,101272.91
2023-05-07T09:40:37.322Z,101261.28
2023-05-07T09:43:13.722Z,101272.44
2023-05-07T09:45:47.550Z,101274.97
2023-05-07T09:48:18.079Z,101263.69
2023-05-07T09:50:53.878Z,101257.75
2023-05-07T09:53:24.145Z,101259.97
2023-05-07T09:55:52.880Z,101274.09
2023-05-07T09:58:21.966Z,101271.25
2023-05-07T10:00:50.628Z,101249.13
2023-05-07T10:03:20.531Z,101257.13
2023-05-07T10:05:59.448Z,101259.09
2023-05-07T10:08:26.917Z,101258.88
2023-05-07T10:10:57.217Z,101257.25
2023-05-07T10:13:27.374Z,101256.38
2023-05-07T10:15:57.094Z,101249.50
2023-05-07T10:18:30.819Z,101246.94
2023-05-07T10:21:09.199Z,101268.78
2023-05-07T10:23:37.077Z,101263.09
2023-05-07T10:26:09.251Z,101257.59
2023-05-07T10:28:41.885Z,101255.81
2023-05-07T10:31:45.253Z,101253.00
2023-05-07T10:34:17.722Z,101258.91
2023-05-07T10:36:45.912Z,101256.41
2023-05-07T10:39:13.661Z,101263.41
2023-05-07T10:41:41.079Z,101258.81
2023-05-07T10:44:08.447Z,101266.31
2023-05-07T10:46:36.974Z,101266.47
2023-05-07T10:49:22.180Z,101281.56
2023-05-07T10:52:18.527Z,101258.03
2023-05-07T10:55:22.281Z,101253.88
2023-05-07T10:57:57.151Z,101253.19
2023-05-07T11:03:02.412Z,101255.88
2023-05-07T11:05:37.620Z,101263.44
2023-05-07T11:08:20.041Z,101263.16
2023-05-07T11:10:57.373Z,101261.00
2023-05-07T11:13:46.290Z,101262.91
2023-05-07T11:16:28.648Z,101265.19
2023-05-07T11:19:03.286Z,101252.94
2023-05-07T11:21:42.883Z,101260.53
2023-05-07T11:24:43.215Z,101251.44
2023-05-07T11:27:11.234Z,101250.03
2023-05-07T11:29:38.269Z,101250.56
2023-05-07T11:32:09.654Z,101268.91
2023-05-07T11:34:55.745Z,101243.28
2023-05-07T11:37:24.542Z,101265.44
2023-05-07T11:40:07.678Z,101254.31
2023-05-07T11:42:39.718Z,101251.41
2023-05-07T11:45:08.253Z,101259.16
2023-05-07T11:47:35.611Z,101249.28
2023-05-07T11:50:06.025Z,101261.03
2023-05-07T11:52:33.132Z,101259.13
2023-05-07T11:55:00.947Z,101254.97
2023-05-07T11:57:28.527Z,101277.97
2023-05-07T11:59:59.174Z,101251.78
2023-05-07T12:02:27.328Z,101265.00
2023-05-07T12:04:54.739Z,101261.69
2023-05-07T12:07:21.996Z,101264.59
2023-05-07T12:09:49.095Z,101264.28
2023-05-07T12:12:18.140Z,101256.47
2023-05-07T12:14:45.844Z,101260.31
2023-05-07T12:19:43.793Z,101260.94
2023-05-07T12:22:11.193Z,101269.44
2023-05-07T12:24:57.357Z,101259.28
2023-05-07T12:27:24.656Z,101272.03
2023-05-07T12:29:51.895Z,101269.59
2023-05-07T12:32:20.540Z,101273.56
2023-05-07T12:34:50.258Z,101263.03
2023-05-07T12:37:17.198Z,101264.47
2023-05-07T12:40:07.138Z,101261.22
2023-05-07T12:42:36.826Z,101261.66
2023-05-07T12:45:14.814Z,101257.88
2023-05-07T12:47:46.164Z,101258.75
2023-05-07T12:50:15.058Z,101269.97
2023-05-07T12:52:41.629Z,101261.47
2023-05-07T12:55:09.397Z,101273.66
2023-05-07T12:57:41.218Z,101260.53
2023-05-07T13:00:08.357Z,101276.00
2023-05-07T13:02:35.823Z,101267.72
2023-05-07T13:05:02.932Z,101268.75
2023-05-07T13:07:30.827Z,101267.47
2023-05-07T13:09:57.896Z,101262.97
2023-05-07T13:12:24.473Z,101264.47
2023-05-07T13:14:51.015Z,101279.97
2023-05-07T13:17:19.613Z,101274.50
2023-05-07T13:19:46.248Z,101274.44
2023-05-07T13:22:14.360Z,101271.09
2023-05-07T13:24:42.660Z,101268.63
2023-05-07T13:27:09.221Z,101268.06
2023-05-07T13:29:35.750Z,101265.09
2023-05-07T13:32:02.596Z,101295.22
2023-05-07T13:34:29.226Z,101268.94
2023-05-07T13:36:56.426Z,101273.56
2023-05-07T13:39:23.012Z,101279.00
2023-05-07T13:41:49.562Z,101260.81
2023-05-07T13:44:16.194Z,101268.34
2023-05-07T13:46:42.764Z,101257.28
2023-05-07T13:49:09.306Z,101251.16
2023-05-07T13:51:36.171Z,101259.56
2023-05-07T13:54:02.730Z,101262.50
2023-05-07T13:56:31.877Z,101255.72
2023-05-07T13:59:00.464Z,101256.09
2023-05-07T14:01:27.985Z,101244.34
2023-05-07T14:03:56.644Z,101240.50
2023-05-07T14:06:23.343Z,101233.94
2023-05-07T14:08:51.206Z,101229.72
2023-05-07T14:11:18.064Z,101232.00
2023-05-07T14:13:44.612Z,101226.81
2023-05-07T14:16:11.644Z,101215.66
2023-05-07T14:18:39.511Z,101222.97
2023-05-07T14:21:07.280Z,101202.59
2023-05-07T14:23:34.062Z,101216.78
2023-05-07T14:26:00.987Z,101217.31
2023-05-07T14:28:27.608Z,101221.41
2023-05-07T14:30:54.923Z,101223.69
2023-05-07T14:33:21.473Z,101229.25
2023-05-07T14:35:49.877Z,101234.53
2023-05-07T14:38:16.631Z,101235.22
2023-05-07T14:40:43.311Z,101241.00
2023-05-07T14:43:09.900Z,101232.06
2023-05-07T14:45:36.676Z,101230.97
2023-05-07T14:48:03.820Z,101230.34
2023-05-07T14:50:30.998Z,101241.16
2023-05-07T14:52:57.649Z,101230.72
2023-05-07T14:55:24.232Z,101231.69
2023-05-07T14:57:50.774Z,101247.34
2023-05-07T15:00:17.474Z,101245.84
2023-05-07T15:02:44.479Z,101251.50
2023-05-07T15:05:11.730Z,101252.44
2023-05-07T15:07:38.859Z,101257.06
2023-05-07T15:10:06.086Z,101268.38
2023-05-07T15:12:32.873Z,101255.53
2023-05-07T15:14:59.499Z,101254.94
2023-05-07T15:17:26.303Z,101268.69
2023-05-07T15:19:54.383Z,101252.84
2023-05-07T15:22:22.489Z,101246.13
2023-05-07T15:24:49.384Z,101252.16
2023-05-07T15:27:17.647Z,101249.50
2023-05-07T15:29:44.537Z,101255.88
2023-05-07T15:32:11.469Z,101243.50
2023-05-07T15:34:38.224Z,101260.94
2023-05-07T15:37:04.899Z,101245.63
2023-05-07T15:39:32.014Z,101261.03
2023-05-07T15:41:58.945Z,101242.78
2023-05-07T15:44:29.435Z,101256.63
2023-05-07T15:46:56.680Z,101237.25
2023-05-07T15:49:23.372Z,101244.06
2023-05-07T15:51:51.953Z,101234.81
2023-05-07T15:54:20.951Z,101244.69
2023-05-07T15:56:48.686Z,101236.41
2023-05-07T15:59:17.114Z,101259.97
2023-05-07T16:01:45.085Z,101247.38
2023-05-07T16:04:12.146Z,101245.28
2023-05-07T16:06:39.091Z,101260.53
2023-05-07T16:09:05.893Z,101248.19
2023-05-07T16:11:33.889Z,101250.31
2023-05-07T16:14:01.408Z,101247.34
2023-05-07T16:16:30.032Z,101252.41
2023-05-07T16:18:57.412Z,101254.34
2023-05-07T16:21:24.062Z,101238.28
2023-05-07T16:23:51.116Z,101254.47
2023-05-07T16:26:17.898Z,101252.78
2023-05-07T16:28:44.874Z,101252.84
2023-05-07T16:31:11.582Z,101256.63
2023-05-07T16:33:38.738Z,101254.56
2023-05-07T16:36:05.964Z,101260.78
2023-05-07T16:38:34.042Z,101256.56
2023-05-07T16:41:01.414Z,101261.38
2023-05-07T16:43:28.297Z,101266.72
2023-05-07T16:45:55.038Z,101260.00
2023-05-07T16:48:21.934Z,101266.69
2023-05-07T16:50:48.949Z,101255.78
2023-05-07T16:53:15.832Z,101255.25
2023-05-07T16:55:43.154Z,101256.59
2023-05-07T16:58:11.473Z,101252.50
2023-05-07T17:00:50.075Z,101250.63
2023-05-07T17:03:18.839Z,101256.69
2023-05-07T17:05:46.264Z,101252.50
2023-05-07T17:08:15.194Z,101242.06
2023-05-07T17:10:42.030Z,101239.97
2023-05-07T17:13:08.885Z,101246.38
2023-05-07T17:15:35.674Z,101240.63
2023-05-07T17:18:02.472Z,101247.09
2023-05-07T17:20:29.672Z,101243.00
2023-05-07T17:22:56.664Z,101245.19
2023-05-07T17:25:23.739Z,101242.69
2023-05-07T17:27:50.538Z,101248.88
2023-05-07T17:30:18.276Z,101252.47
2023-05-07T17:32:48.180Z,101251.81
2023-05-07T17:35:15.270Z,101247.00
2023-05-07T17:37:46.827Z,101248.94
2023-05-07T17:40:13.909Z,101249.41
2023-05-07T17:42:42.409Z,101246.97
2023-05-07T17:45:09.557Z,101255.34
2023-05-07T17:47:36.401Z,101248.59
2023-05-07T17:50:05.826Z,101259.84
2023-05-07T17:52:32.505Z,101264.09
2023-05-07T17:54:59.695Z,101269.03
2023-05-07T17:57:26.722Z,101275.94
2023-05-07T17:59:53.638Z,101280.53
2023-05-07T18:02:21.206Z,101277.53
2023-05-07T18:04:47.991Z,101289.56
2023-05-07T18:07:14.763Z,101292.19
2023-05-07T18:09:41.721Z,101295.13
2023-05-07T18:12:08.539Z,101297.88
2023-05-07T18:14:35.612Z,101288.97
2023-05-07T18:17:02.366Z,101294.19
2023-05-07T18:19:29.007Z,101298.56
2023-05-07T18:21:58.214Z,101308.03
2023-05-07T18:24:25.428Z,101318.88
2023-05-07T18:26:52.104Z,101315.72
2023-05-07T18:29:18.784Z,101310.97
2023-05-07T18:31:46.474Z,101321.41
2023-05-07T18:34:14.237Z,101319.31
2023-05-07T18:36:40.946Z,101329.09
2023-05-07T18:39:08.641Z,101314.03
2023-05-07T18:41:38.650Z,101321.81
2023-05-07T18:44:05.999Z,101327.72
2023-05-07T18:46:32.787Z,101338.34
2023-05-07T18:49:01.094Z,101335.69
2023-05-07T18:51:27.859Z,101346.75
2023-05-07T18:53:54.659Z,101346.56
2023-05-07T18:56:22.095Z,101358.38
2023-05-07T18:58:48.945Z,101353.31
2023-05-07T19:01:15.660Z,101362.44
2023-05-07T19:03:43.042Z,101362.31
2023-05-07T19:06:09.826Z,101354.59
2023-05-07T19:08:36.500Z,101358.56
2023-05-07T19:11:03.571Z,101359.50
2023-05-07T19:13:30.787Z,101364.88
2023-05-07T19:15:57.780Z,101365.78
2023-05-07T19:18:24.927Z,101361.66
2023-05-07T19:20:53.640Z,101369.53
2023-05-07T19:23:22.421Z,101371.59
2023-05-07T19:25:49.267Z,101371.13
2023-05-07T19:28:16.408Z,101366.56
2023-05-07T19:30:44.043Z,101378.44
2023-05-07T19:33:11.005Z,101380.16
2023-05-07T19:35:37.955Z,101382.38
2023-05-07T19:38:06.028Z,101379.75
2023-05-07T19:40:32.893Z,101387.16
2023-05-07T19:42:59.857Z,101389.28
2023-05-07T19:45:26.556Z,101398.34
2023-05-07T19:47:53.397Z,101398.50
2023-05-07T19:50:20.696Z,101405.78
2023-05-07T19:52:48.006Z,101401.72
2023-05-07T19:55:15.181Z,101396.81
2023-05-07T19:57:42.436Z,101407.91
2023-05-07T20:00:09.954Z,101403.19
2023-05-07T20:02:43.621Z,101414.97
2023-05-07T20:05:12.915Z,101411.47
2023-05-07T20:07:40.934Z,101407.97
2023-05-07T20:10:08.447Z,101404.75
2023-05-07T20:12:35.275Z,101407.44
2023-05-07T20:15:02.644Z,101406.63
2023-05-07T20:17:31.594Z,101411.28
2023-05-07T20:19:58.514Z,101411.03
2023-05-07T20:22:25.621Z,101406.94
2023-05-07T20:24:52.694Z,101405.47
2023-05-07T20:27:22.071Z,101401.69
2023-05-07T20:29:49.040Z,101405.63
2023-05-07T20:32:15.739Z,101408.44
2023-05-07T20:34:46.337Z,101404.59
2023-05-07T20:37:16.148Z,101409.13
2023-05-07T20:39:43.424Z,101408.09
2023-05-07T20:42:10.278Z,101417.75
2023-05-07T20:44:37.069Z,101413.53
2023-05-07T20:47:04.482Z,101409.00
2023-05-07T20:49:31.153Z,101406.22
2023-05-07T20:51:57.867Z,101417.16
2023-05-07T20:54:27.836Z,101415.66
2023-05-07T20:56:55.278Z,101424.38
2023-05-07T20:59:21.935Z,101427.06
2023-05-07T21:01:48.862Z,101428.94
2023-05-07T21:04:15.795Z,101430.19
2023-05-07T21:06:43.521Z,101432.38
2023-05-07T21:09:11.198Z,101435.75
2023-05-07T21:11:38.507Z,101434.03
2023-05-07T21:14:05.127Z,101442.22
2023-05-07T21:16:31.738Z,101431.81
2023-05-07T21:18:58.301Z,101441.56
2023-05-07T21:21:24.929Z,101444.31
2023-05-07T21:23:53.362Z,101439.19
2023-05-07T21:26:20.562Z,101447.78
2023-05-07T21:28:47.423Z,101448.63
2023-05-07T21:31:14.087Z,101443.75
2023-05-07T21:33:42.994Z,101444.41
2023-05-07T21:36:10.055Z,101438.22
2023-05-07T21:38:38.105Z,101444.97
2023-05-07T21:41:04.985Z,101441.16
2023-05-07T21:43:31.645Z,101439.88
2023-05-07T21:45:59.236Z,101444.97
2023-05-07T21:48:26.676Z,101447.44
2023-05-07T21:51:03.953Z,101444.72
2023-05-07T21:53:31.682Z,101444.88
2023-05-07T21:56:00.507Z,101449.00
2023-05-07T21:58:27.101Z,101466.78
2023-05-07T22:00:53.856Z,101450.34
2023-05-07T22:03:20.918Z,101455.13
2023-05-07T22:05:49.729Z,101462.41
2023-05-07T22:08:16.648Z,101467.78
2023-05-07T22:10:43.585Z,101466.09
2023-05-07T22:13:10.391Z,101462.56
2023-05-07T22:15:45.474Z,101460.66
2023-05-07T22:18:20.092Z,101474.03
2023-05-07T22:20:47.370Z,101463.22
2023-05-07T22:23:13.952Z,101453.59
2023-05-07T22:25:40.521Z,101459.66
2023-05-07T22:28:07.059Z,101452.97
2023-05-07T22:30:33.728Z,101452.91
2023-05-07T22:33:00.309Z,101462.31
2023-05-07T22:35:26.999Z,101455.97
2023-05-07T22:37:53.545Z,101452.56
2023-05-07T22:40:21.151Z,101456.00
2023-05-07T22:42:47.963Z,101453.59
2023-05-07T22:45:14.500Z,101455.66
2023-05-07T22:47:41.175Z,101455.28
2023-05-07T22:50:08.245Z,101451.13
2023-05-07T22:52:35.109Z,101466.94
2023-05-07T22:55:01.677Z,101455.59
2023-05-07T22:57:28.249Z,101456.06
2023-05-07T22:59:57.916Z,101446.44
2023-05-07T23:02:24.734Z,101452.75
2023-05-07T23:04:51.577Z,101450.19
2023-05-07T23:07:18.145Z,101447.50
2023-05-07T23:09:44.702Z,101436.59
2023-05-07T23:12:11.268Z,101441.06
2023-05-07T23:14:38.153Z,101443.69
2023-05-07T23:17:04.792Z,101438.56
2023-05-07T23:19:31.419Z,101442.56
2023-05-07T23:21:58.441Z,101441.00
2023-05-07T23:24:25.052Z,101448.47
2023-05-07T23:26:52.002Z,101440.88
2023-05-07T23:29:19.193Z,101439.34
2023-05-07T23:31:45.741Z,101438.88
2023-05-07T23:34:12.564Z,101453.03
2023-05-07T23:36:39.127Z,101456.63
2023-05-07T23:39:06.128Z,101453.44
2023-05-07T23:41:33.068Z,101449.56
2023-05-07T23:43:59.604Z,101445.72
2023-05-07T23:46:26.801Z,101448.88
2023-05-07T23:48:53.405Z,101449.72
2023-05-07T23:51:20.400Z,101456.31
2023-05-07T23:53:46.958Z,101458.00
2023-05-07T23:56:13.550Z,101449.13
2023-05-07T23:58:40.127Z,101448.03
